sensor_id;sensor_type;location;lat;lon;timestamp;temperature;humidity
41481;DHT22;27217;51.220;5.308;2022-07-29T00:00:12;19.70;99.90
41481;DHT22;27217;51.220;5.308;2022-07-29T00:02:37;19.40;99.90
41481;DHT22;27217;51.220;5.308;2022-07-29T00:05:04;19.20;99.90
41481;DHT22;27217;51.220;5.308;2022-07-29T00:07:31;18.90;99.90
41481;DHT22;27217;51.220;5.308;2022-07-29T00:09:57;18.50;99.90
41481;DHT22;27217;51.220;5.308;2022-07-29T00:12:24;18.30;99.90
41481;DHT22;27217;51.220;5.308;2022-07-29T00:14:51;18.10;99.90
41481;DHT22;27217;51.220;5.308;2022-07-29T00:17:16;17.80;99.90
41481;DHT22;27217;51.220;5.308;2022-07-29T00:19:43;17.60;99.90
41481;DHT22;27217;51.220;5.308;2022-07-29T00:22:09;17.50;99.90
41481;DHT22;27217;51.220;5.308;2022-07-29T00:24:34;17.30;99.90
41481;DHT22;27217;51.220;5.308;2022-07-29T00:27:01;17.20;99.90
41481;DHT22;27217;51.220;5.308;2022-07-29T00:29:26;17.10;99.90
41481;DHT22;27217;51.220;5.308;2022-07-29T00:31:52;17.00;99.90
41481;DHT22;27217;51.220;5.308;2022-07-29T00:34:18;17.00;99.90
41481;DHT22;27217;51.220;5.308;2022-07-29T00:37:03;16.90;99.90
41481;DHT22;27217;51.220;5.308;2022-07-29T00:39:29;17.00;99.90
41481;DHT22;27217;51.220;5.308;2022-07-29T00:41:55;17.10;99.90
41481;DHT22;27217;51.220;5.308;2022-07-29T00:44:21;17.00;99.90
41481;DHT22;27217;51.220;5.308;2022-07-29T00:46:47;17.00;99.90
41481;DHT22;27217;51.220;5.308;2022-07-29T00:49:13;17.00;99.90
41481;DHT22;27217;51.220;5.308;2022-07-29T00:51:39;17.00;99.90
41481;DHT22;27217;51.220;5.308;2022-07-29T00:54:06;17.10;99.90
41481;DHT22;27217;51.220;5.308;2022-07-29T00:56:33;17.00;99.90
41481;DHT22;27217;51.220;5.308;2022-07-29T00:58:59;17.00;99.90
41481;DHT22;27217;51.220;5.308;2022-07-29T01:01:26;17.10;99.90
41481;DHT22;27217;51.220;5.308;2022-07-29T01:03:53;17.20;99.90
41481;DHT22;27217;51.220;5.308;2022-07-29T01:06:20;17.20;99.90
41481;DHT22;27217;51.220;5.308;2022-07-29T01:08:47;17.30;99.90
41481;DHT22;27217;51.220;5.308;2022-07-29T01:11:15;17.40;99.90
41481;DHT22;27217;51.220;5.308;2022-07-29T01:13:43;17.30;99.90
41481;DHT22;27217;51.220;5.308;2022-07-29T01:16:35;17.40;99.90
41481;DHT22;27217;51.220;5.308;2022-07-29T01:19:18;17.30;99.90
41481;DHT22;27217;51.220;5.308;2022-07-29T01:21:55;17.30;99.90
41481;DHT22;27217;51.220;5.308;2022-07-29T01:24:50;17.30;99.90
41481;DHT22;27217;51.220;5.308;2022-07-29T01:30:08;17.20;99.90
41481;DHT22;27217;51.220;5.308;2022-07-29T01:32:36;17.30;99.90
41481;DHT22;27217;51.220;5.308;2022-07-29T01:35:10;17.30;99.90
41481;DHT22;27217;51.220;5.308;2022-07-29T01:40:42;17.00;99.90
41481;DHT22;27217;51.220;5.308;2022-07-29T01:43:15;16.90;99.90
41481;DHT22;27217;51.220;5.308;2022-07-29T01:45:46;16.90;99.90
41481;DHT22;27217;51.220;5.308;2022-07-29T01:48:17;17.00;99.90
41481;DHT22;27217;51.220;5.308;2022-07-29T01:51:05;17.10;99.90
41481;DHT22;27217;51.220;5.308;2022-07-29T01:53:42;17.20;99.90
41481;DHT22;27217;51.220;5.308;2022-07-29T01:56:11;17.50;99.90
41481;DHT22;27217;51.220;5.308;2022-07-29T01:58:40;17.50;99.90
41481;DHT22;27217;51.220;5.308;2022-07-29T02:01:09;17.30;99.90
41481;DHT22;27217;51.220;5.308;2022-07-29T02:03:36;17.40;99.90
41481;DHT22;27217;51.220;5.308;2022-07-29T02:06:04;17.40;99.90
41481;DHT22;27217;51.220;5.308;2022-07-29T02:08:32;17.40;99.90
41481;DHT22;27217;51.220;5.308;2022-07-29T02:11:00;17.50;99.90
41481;DHT22;27217;51.220;5.308;2022-07-29T02:13:28;17.40;99.90
41481;DHT22;27217;51.220;5.308;2022-07-29T02:15:57;17.40;99.90
41481;DHT22;27217;51.220;5.308;2022-07-29T02:18:25;17.20;99.90
41481;DHT22;27217;51.220;5.308;2022-07-29T02:20:56;17.20;99.90
41481;DHT22;27217;51.220;5.308;2022-07-29T02:23:25;17.20;99.90
41481;DHT22;27217;51.220;5.308;2022-07-29T02:25:59;17.30;99.90
41481;DHT22;27217;51.220;5.308;2022-07-29T02:28:27;17.30;99.90
41481;DHT22;27217;51.220;5.308;2022-07-29T02:30:57;17.40;99.90
41481;DHT22;27217;51.220;5.308;2022-07-29T02:33:23;17.50;99.90
41481;DHT22;27217;51.220;5.308;2022-07-29T02:35:52;17.50;99.90
41481;DHT22;27217;51.220;5.308;2022-07-29T02:38:20;17.50;99.90
41481;DHT22;27217;51.220;5.308;2022-07-29T02:41:33;17.30;99.90
41481;DHT22;27217;51.220;5.308;2022-07-29T02:44:12;17.30;99.90
41481;DHT22;27217;51.220;5.308;2022-07-29T02:47:10;17.20;99.90
41481;DHT22;27217;51.220;5.308;2022-07-29T02:49:56;17.20;99.90
41481;DHT22;27217;51.220;5.308;2022-07-29T02:53:40;17.30;99.90
41481;DHT22;27217;51.220;5.308;2022-07-29T02:55:37;17.40;99.90
41481;DHT22;27217;51.220;5.308;2022-07-29T02:58:21;17.20;99.90
41481;DHT22;27217;51.220;5.308;2022-07-29T03:00:52;17.00;99.90
41481;DHT22;27217;51.220;5.308;2022-07-29T03:03:19;16.80;99.90
41481;DHT22;27217;51.220;5.308;2022-07-29T03:05:46;16.70;99.90
41481;DHT22;27217;51.220;5.308;2022-07-29T03:08:12;16.70;99.90
41481;DHT22;27217;51.220;5.308;2022-07-29T03:10:44;16.50;99.90
41481;DHT22;27217;51.220;5.308;2022-07-29T03:13:11;16.40;99.90
41481;DHT22;27217;51.220;5.308;2022-07-29T03:15:38;16.30;99.90
41481;DHT22;27217;51.220;5.308;2022-07-29T03:18:06;16.20;99.90
41481;DHT22;27217;51.220;5.308;2022-07-29T03:20:32;16.20;99.90
41481;DHT22;27217;51.220;5.308;2022-07-29T03:22:58;16.20;99.90
41481;DHT22;27217;51.220;5.308;2022-07-29T03:25:24;16.10;99.90
41481;DHT22;27217;51.220;5.308;2022-07-29T03:27:50;16.10;99.90
41481;DHT22;27217;51.220;5.308;2022-07-29T03:30:17;16.20;99.90
41481;DHT22;27217;51.220;5.308;2022-07-29T03:32:43;16.40;99.90
41481;DHT22;27217;51.220;5.308;2022-07-29T03:35:09;16.40;99.90
41481;DHT22;27217;51.220;5.308;2022-07-29T03:37:35;16.50;99.90
41481;DHT22;27217;51.220;5.308;2022-07-29T03:40:04;16.40;99.90
41481;DHT22;27217;51.220;5.308;2022-07-29T03:42:32;16.30;99.90
41481;DHT22;27217;51.220;5.308;2022-07-29T03:45:03;16.30;99.90
41481;DHT22;27217;51.220;5.308;2022-07-29T03:47:31;16.20;99.90
41481;DHT22;27217;51.220;5.308;2022-07-29T03:50:06;16.10;99.90
41481;DHT22;27217;51.220;5.308;2022-07-29T03:52:33;16.00;99.90
41481;DHT22;27217;51.220;5.308;2022-07-29T03:54:59;16.10;99.90
41481;DHT22;27217;51.220;5.308;2022-07-29T03:57:27;16.10;99.90
41481;DHT22;27217;51.220;5.308;2022-07-29T03:59:54;16.10;99.90
41481;DHT22;27217;51.220;5.308;2022-07-29T04:02:21;16.30;99.90
41481;DHT22;27217;51.220;5.308;2022-07-29T04:04:47;16.30;99.90
41481;DHT22;27217;51.220;5.308;2022-07-29T04:07:14;16.20;99.90
41481;DHT22;27217;51.220;5.308;2022-07-29T04:09:40;16.20;99.90
41481;DHT22;27217;51.220;5.308;2022-07-29T04:12:06;16.20;99.90
41481;DHT22;27217;51.220;5.308;2022-07-29T04:14:33;16.20;99.90
41481;DHT22;27217;51.220;5.308;2022-07-29T04:17:00;16.20;99.90
41481;DHT22;27217;51.220;5.308;2022-07-29T04:19:27;16.20;99.90
41481;DHT22;27217;51.220;5.308;2022-07-29T04:21:53;16.20;99.90
41481;DHT22;27217;51.220;5.308;2022-07-29T04:24:19;16.20;99.90
41481;DHT22;27217;51.220;5.308;2022-07-29T04:26:46;16.20;99.90
41481;DHT22;27217;51.220;5.308;2022-07-29T04:29:12;16.30;99.90
41481;DHT22;27217;51.220;5.308;2022-07-29T04:31:40;16.40;99.90
41481;DHT22;27217;51.220;5.308;2022-07-29T04:34:06;16.30;99.90
41481;DHT22;27217;51.220;5.308;2022-07-29T04:36:32;16.40;99.90
41481;DHT22;27217;51.220;5.308;2022-07-29T04:38:58;16.40;99.90
41481;DHT22;27217;51.220;5.308;2022-07-29T04:41:28;16.70;99.90
41481;DHT22;27217;51.220;5.308;2022-07-29T04:43:54;16.60;99.90
41481;DHT22;27217;51.220;5.308;2022-07-29T04:46:20;16.70;99.90
41481;DHT22;27217;51.220;5.308;2022-07-29T04:48:46;16.70;99.90
41481;DHT22;27217;51.220;5.308;2022-07-29T04:51:14;16.70;99.90
41481;DHT22;27217;51.220;5.308;2022-07-29T04:53:40;16.60;99.90
41481;DHT22;27217;51.220;5.308;2022-07-29T04:56:05;16.50;99.90
41481;DHT22;27217;51.220;5.308;2022-07-29T04:58:34;16.60;99.90
41481;DHT22;27217;51.220;5.308;2022-07-29T05:01:00;16.70;99.90
41481;DHT22;27217;51.220;5.308;2022-07-29T05:03:25;16.90;99.90
41481;DHT22;27217;51.220;5.308;2022-07-29T05:05:51;17.00;99.90
41481;DHT22;27217;51.220;5.308;2022-07-29T05:08:17;16.90;99.90
41481;DHT22;27217;51.220;5.308;2022-07-29T05:10:44;16.90;99.90
41481;DHT22;27217;51.220;5.308;2022-07-29T05:13:10;16.80;99.90
41481;DHT22;27217;51.220;5.308;2022-07-29T05:15:36;16.60;99.90
41481;DHT22;27217;51.220;5.308;2022-07-29T05:18:03;16.40;99.90
41481;DHT22;27217;51.220;5.308;2022-07-29T05:20:29;16.20;99.90
41481;DHT22;27217;51.220;5.308;2022-07-29T05:22:57;16.20;99.90
41481;DHT22;27217;51.220;5.308;2022-07-29T05:25:24;16.20;99.90
41481;DHT22;27217;51.220;5.308;2022-07-29T05:27:50;16.20;99.90
41481;DHT22;27217;51.220;5.308;2022-07-29T05:30:16;16.20;99.90
41481;DHT22;27217;51.220;5.308;2022-07-29T05:32:43;16.30;99.90
41481;DHT22;27217;51.220;5.308;2022-07-29T05:35:09;16.20;99.90
41481;DHT22;27217;51.220;5.308;2022-07-29T05:37:35;16.20;99.90
41481;DHT22;27217;51.220;5.308;2022-07-29T05:40:03;16.20;99.90
41481;DHT22;27217;51.220;5.308;2022-07-29T05:42:29;16.20;99.90
41481;DHT22;27217;51.220;5.308;2022-07-29T05:44:55;16.20;99.90
41481;DHT22;27217;51.220;5.308;2022-07-29T05:47:22;16.20;99.90
41481;DHT22;27217;51.220;5.308;2022-07-29T05:49:47;16.10;99.90
41481;DHT22;27217;51.220;5.308;2022-07-29T05:52:14;16.20;99.90
41481;DHT22;27217;51.220;5.308;2022-07-29T05:54:40;16.30;99.90
41481;DHT22;27217;51.220;5.308;2022-07-29T05:57:06;16.30;99.90
41481;DHT22;27217;51.220;5.308;2022-07-29T05:59:36;16.20;99.90
41481;DHT22;27217;51.220;5.308;2022-07-29T06:02:03;16.10;99.90
41481;DHT22;27217;51.220;5.308;2022-07-29T06:04:31;16.10;99.90
41481;DHT22;27217;51.220;5.308;2022-07-29T06:06:56;16.10;99.90
41481;DHT22;27217;51.220;5.308;2022-07-29T06:09:23;16.00;99.90
41481;DHT22;27217;51.220;5.308;2022-07-29T06:11:48;16.10;99.90
41481;DHT22;27217;51.220;5.308;2022-07-29T06:14:15;16.20;99.90
41481;DHT22;27217;51.220;5.308;2022-07-29T06:16:41;16.20;99.90
41481;DHT22;27217;51.220;5.308;2022-07-29T06:19:09;16.10;99.90
41481;DHT22;27217;51.220;5.308;2022-07-29T06:21:35;16.20;99.90
41481;DHT22;27217;51.220;5.308;2022-07-29T06:24:01;16.30;99.90
41481;DHT22;27217;51.220;5.308;2022-07-29T06:26:27;16.40;99.90
41481;DHT22;27217;51.220;5.308;2022-07-29T06:28:53;16.50;99.90
41481;DHT22;27217;51.220;5.308;2022-07-29T06:31:19;16.50;99.90
41481;DHT22;27217;51.220;5.308;2022-07-29T06:33:45;16.60;99.90
41481;DHT22;27217;51.220;5.308;2022-07-29T06:36:11;16.70;99.90
41481;DHT22;27217;51.220;5.308;2022-07-29T06:38:37;16.60;99.90
41481;DHT22;27217;51.220;5.308;2022-07-29T06:41:04;16.60;99.90
41481;DHT22;27217;51.220;5.308;2022-07-29T06:43:37;16.60;99.90
41481;DHT22;27217;51.220;5.308;2022-07-29T06:46:06;16.60;99.90
41481;DHT22;27217;51.220;5.308;2022-07-29T06:48:33;16.70;99.90
41481;DHT22;27217;51.220;5.308;2022-07-29T06:50:59;16.80;99.90
41481;DHT22;27217;51.220;5.308;2022-07-29T06:53:27;16.80;99.90
41481;DHT22;27217;51.220;5.308;2022-07-29T06:55:53;17.00;99.90
41481;DHT22;27217;51.220;5.308;2022-07-29T06:58:18;17.20;99.90
41481;DHT22;27217;51.220;5.308;2022-07-29T07:00:47;17.20;99.90
41481;DHT22;27217;51.220;5.308;2022-07-29T07:03:16;17.00;99.90
41481;DHT22;27217;51.220;5.308;2022-07-29T07:05:43;17.00;99.90
41481;DHT22;27217;51.220;5.308;2022-07-29T07:08:09;17.00;99.90
41481;DHT22;27217;51.220;5.308;2022-07-29T07:10:42;17.10;99.90
41481;DHT22;27217;51.220;5.308;2022-07-29T07:13:08;17.20;99.90
41481;DHT22;27217;51.220;5.308;2022-07-29T07:15:35;17.40;99.90
41481;DHT22;27217;51.220;5.308;2022-07-29T07:18:02;17.60;99.90
41481;DHT22;27217;51.220;5.308;2022-07-29T07:20:28;17.80;99.90
41481;DHT22;27217;51.220;5.308;2022-07-29T07:22:54;17.80;99.90
41481;DHT22;27217;51.220;5.308;2022-07-29T07:25:20;17.70;99.90
41481;DHT22;27217;51.220;5.308;2022-07-29T07:27:46;17.60;99.90
41481;DHT22;27217;51.220;5.308;2022-07-29T07:30:13;17.60;99.90
41481;DHT22;27217;51.220;5.308;2022-07-29T07:32:39;17.90;99.90
41481;DHT22;27217;51.220;5.308;2022-07-29T07:35:06;18.00;99.90
41481;DHT22;27217;51.220;5.308;2022-07-29T07:37:32;18.00;99.90
41481;DHT22;27217;51.220;5.308;2022-07-29T07:39:58;18.10;99.90
41481;DHT22;27217;51.220;5.308;2022-07-29T07:42:25;18.10;99.90
41481;DHT22;27217;51.220;5.308;2022-07-29T07:44:50;18.10;99.90
41481;DHT22;27217;51.220;5.308;2022-07-29T07:47:16;18.10;99.90
41481;DHT22;27217;51.220;5.308;2022-07-29T07:49:46;18.10;99.90
41481;DHT22;27217;51.220;5.308;2022-07-29T07:52:16;18.50;99.90
41481;DHT22;27217;51.220;5.308;2022-07-29T07:54:42;18.70;99.90
41481;DHT22;27217;51.220;5.308;2022-07-29T07:57:09;18.70;99.90
41481;DHT22;27217;51.220;5.308;2022-07-29T07:59:35;19.00;99.90
41481;DHT22;27217;51.220;5.308;2022-07-29T08:02:01;19.30;99.90
41481;DHT22;27217;51.220;5.308;2022-07-29T08:04:27;19.20;99.90
41481;DHT22;27217;51.220;5.308;2022-07-29T08:06:53;19.60;99.90
41481;DHT22;27217;51.220;5.308;2022-07-29T08:09:20;19.40;99.90
41481;DHT22;27217;51.220;5.308;2022-07-29T08:11:46;19.30;99.90
41481;DHT22;27217;51.220;5.308;2022-07-29T08:14:12;19.20;99.90
41481;DHT22;27217;51.220;5.308;2022-07-29T08:16:42;19.20;99.90
41481;DHT22;27217;51.220;5.308;2022-07-29T08:19:09;19.20;99.90
41481;DHT22;27217;51.220;5.308;2022-07-29T08:21:35;19.20;99.90
41481;DHT22;27217;51.220;5.308;2022-07-29T08:24:01;19.40;99.90
41481;DHT22;27217;51.220;5.308;2022-07-29T08:26:45;19.60;99.90
41481;DHT22;27217;51.220;5.308;2022-07-29T08:29:12;19.60;99.90
41481;DHT22;27217;51.220;5.308;2022-07-29T08:31:38;19.70;99.90
41481;DHT22;27217;51.220;5.308;2022-07-29T08:34:04;19.70;99.90
41481;DHT22;27217;51.220;5.308;2022-07-29T08:36:31;19.90;99.90
41481;DHT22;27217;51.220;5.308;2022-07-29T08:38:57;19.90;99.90
41481;DHT22;27217;51.220;5.308;2022-07-29T08:41:23;19.80;99.90
41481;DHT22;27217;51.220;5.308;2022-07-29T08:43:49;20.10;99.90
41481;DHT22;27217;51.220;5.308;2022-07-29T08:46:16;20.50;99.90
41481;DHT22;27217;51.220;5.308;2022-07-29T08:48:43;20.50;99.90
41481;DHT22;27217;51.220;5.308;2022-07-29T08:51:13;20.50;99.90
41481;DHT22;27217;51.220;5.308;2022-07-29T08:53:41;20.60;99.90
41481;DHT22;27217;51.220;5.308;2022-07-29T08:56:07;20.80;99.90
41481;DHT22;27217;51.220;5.308;2022-07-29T08:58:37;20.80;99.90
41481;DHT22;27217;51.220;5.308;2022-07-29T09:01:03;20.90;99.90
41481;DHT22;27217;51.220;5.308;2022-07-29T09:03:33;20.90;99.90
41481;DHT22;27217;51.220;5.308;2022-07-29T09:06:00;21.00;99.90
41481;DHT22;27217;51.220;5.308;2022-07-29T09:08:27;20.90;99.90
41481;DHT22;27217;51.220;5.308;2022-07-29T09:10:54;20.90;99.90
41481;DHT22;27217;51.220;5.308;2022-07-29T09:13:22;20.90;99.90
41481;DHT22;27217;51.220;5.308;2022-07-29T09:15:48;21.10;99.90
41481;DHT22;27217;51.220;5.308;2022-07-29T09:18:33;21.10;99.90
41481;DHT22;27217;51.220;5.308;2022-07-29T09:21:00;21.10;99.90
41481;DHT22;27217;51.220;5.308;2022-07-29T09:24:08;21.20;99.90
41481;DHT22;27217;51.220;5.308;2022-07-29T09:26:42;21.50;99.90
41481;DHT22;27217;51.220;5.308;2022-07-29T09:29:14;21.80;99.90
41481;DHT22;27217;51.220;5.308;2022-07-29T09:31:41;22.00;99.90
41481;DHT22;27217;51.220;5.308;2022-07-29T09:34:08;22.10;99.90
41481;DHT22;27217;51.220;5.308;2022-07-29T09:36:42;22.30;99.90
41481;DHT22;27217;51.220;5.308;2022-07-29T09:39:09;22.70;99.90
41481;DHT22;27217;51.220;5.308;2022-07-29T09:41:52;22.50;99.90
41481;DHT22;27217;51.220;5.308;2022-07-29T09:44:21;22.80;99.90
41481;DHT22;27217;51.220;5.308;2022-07-29T09:46:59;22.90;99.90
41481;DHT22;27217;51.220;5.308;2022-07-29T09:49:34;22.80;99.90
41481;DHT22;27217;51.220;5.308;2022-07-29T09:52:05;22.80;99.90
41481;DHT22;27217;51.220;5.308;2022-07-29T09:54:32;22.70;99.90
41481;DHT22;27217;51.220;5.308;2022-07-29T09:57:05;23.10;99.90
41481;DHT22;27217;51.220;5.308;2022-07-29T09:59:31;23.10;99.90
41481;DHT22;27217;51.220;5.308;2022-07-29T10:01:58;23.30;99.90
41481;DHT22;27217;51.220;5.308;2022-07-29T10:04:39;23.20;99.90
41481;DHT22;27217;51.220;5.308;2022-07-29T10:07:05;23.60;99.90
41481;DHT22;27217;51.220;5.308;2022-07-29T10:09:32;23.80;99.90
41481;DHT22;27217;51.220;5.308;2022-07-29T10:12:11;23.60;99.90
41481;DHT22;27217;51.220;5.308;2022-07-29T10:14:40;23.80;99.90
41481;DHT22;27217;51.220;5.308;2022-07-29T10:17:08;24.10;99.90
41481;DHT22;27217;51.220;5.308;2022-07-29T10:19:35;24.40;99.90
41481;DHT22;27217;51.220;5.308;2022-07-29T10:22:06;24.50;99.90
41481;DHT22;27217;51.220;5.308;2022-07-29T10:24:32;24.40;99.90
41481;DHT22;27217;51.220;5.308;2022-07-29T10:27:00;24.50;99.90
41481;DHT22;27217;51.220;5.308;2022-07-29T10:29:27;24.60;99.90
41481;DHT22;27217;51.220;5.308;2022-07-29T10:35:06;24.80;99.90
41481;DHT22;27217;51.220;5.308;2022-07-29T10:37:58;25.00;99.90
41481;DHT22;27217;51.220;5.308;2022-07-29T10:40:50;25.20;99.90
41481;DHT22;27217;51.220;5.308;2022-07-29T10:43:41;25.10;99.90
41481;DHT22;27217;51.220;5.308;2022-07-29T10:46:08;24.60;99.90
41481;DHT22;27217;51.220;5.308;2022-07-29T10:48:35;24.50;99.90
41481;DHT22;27217;51.220;5.308;2022-07-29T10:51:03;24.80;99.80
41481;DHT22;27217;51.220;5.308;2022-07-29T10:53:48;25.00;99.90
41481;DHT22;27217;51.220;5.308;2022-07-29T10:56:27;24.80;99.10
41481;DHT22;27217;51.220;5.308;2022-07-29T11:01:44;25.10;99.70
41481;DHT22;27217;51.220;5.308;2022-07-29T11:04:11;25.10;98.70
41481;DHT22;27217;51.220;5.308;2022-07-29T11:09:31;25.50;97.40
41481;DHT22;27217;51.220;5.308;2022-07-29T11:11:57;25.80;97.40
41481;DHT22;27217;51.220;5.308;2022-07-29T11:14:55;26.10;97.10
41481;DHT22;27217;51.220;5.308;2022-07-29T11:17:21;26.90;96.40
41481;DHT22;27217;51.220;5.308;2022-07-29T11:19:48;28.60;94.20
41481;DHT22;27217;51.220;5.308;2022-07-29T11:22:32;29.90;90.70
41481;DHT22;27217;51.220;5.308;2022-07-29T11:25:17;31.50;87.10
41481;DHT22;27217;51.220;5.308;2022-07-29T11:27:46;31.80;77.00
41481;DHT22;27217;51.220;5.308;2022-07-29T11:30:12;32.00;77.20
41481;DHT22;27217;51.220;5.308;2022-07-29T11:32:43;32.70;73.90
41481;DHT22;27217;51.220;5.308;2022-07-29T11:35:23;32.90;70.40
41481;DHT22;27217;51.220;5.308;2022-07-29T11:38:25;33.90;68.60
41481;DHT22;27217;51.220;5.308;2022-07-29T11:43:53;35.60;60.80
41481;DHT22;27217;51.220;5.308;2022-07-29T11:49:22;34.90;61.00
41481;DHT22;27217;51.220;5.308;2022-07-29T11:51:56;34.90;60.50
41481;DHT22;27217;51.220;5.308;2022-07-29T11:54:33;35.10;60.70
41481;DHT22;27217;51.220;5.308;2022-07-29T11:57:00;35.70;59.70
41481;DHT22;27217;51.220;5.308;2022-07-29T11:59:26;35.60;58.30
41481;DHT22;27217;51.220;5.308;2022-07-29T12:01:59;34.00;61.50
41481;DHT22;27217;51.220;5.308;2022-07-29T12:04:26;33.50;62.10
41481;DHT22;27217;51.220;5.308;2022-07-29T12:06:55;33.00;62.60
41481;DHT22;27217;51.220;5.308;2022-07-29T12:09:22;33.70;61.50
41481;DHT22;27217;51.220;5.308;2022-07-29T12:11:49;34.40;59.70
41481;DHT22;27217;51.220;5.308;2022-07-29T12:14:29;34.00;59.30
41481;DHT22;27217;51.220;5.308;2022-07-29T12:16:56;31.80;62.90
41481;DHT22;27217;51.220;5.308;2022-07-29T12:19:21;31.00;65.60
41481;DHT22;27217;51.220;5.308;2022-07-29T12:21:52;32.20;64.00
41481;DHT22;27217;51.220;5.308;2022-07-29T12:24:19;33.20;61.70
41481;DHT22;27217;51.220;5.308;2022-07-29T12:26:55;34.50;60.20
41481;DHT22;27217;51.220;5.308;2022-07-29T12:29:22;35.20;58.90
41481;DHT22;27217;51.220;5.308;2022-07-29T12:31:55;34.40;59.10
41481;DHT22;27217;51.220;5.308;2022-07-29T12:34:23;32.50;60.40
41481;DHT22;27217;51.220;5.308;2022-07-29T12:36:50;31.50;61.40
41481;DHT22;27217;51.220;5.308;2022-07-29T12:39:16;30.90;62.70
41481;DHT22;27217;51.220;5.308;2022-07-29T12:41:43;31.40;63.00
41481;DHT22;27217;51.220;5.308;2022-07-29T12:44:10;32.40;60.90
41481;DHT22;27217;51.220;5.308;2022-07-29T12:46:36;34.20;58.00
41481;DHT22;27217;51.220;5.308;2022-07-29T12:49:04;36.30;55.20
41481;DHT22;27217;51.220;5.308;2022-07-29T12:51:32;37.00;54.00
41481;DHT22;27217;51.220;5.308;2022-07-29T12:54:08;36.50;53.50
41481;DHT22;27217;51.220;5.308;2022-07-29T12:56:36;36.30;53.00
41481;DHT22;27217;51.220;5.308;2022-07-29T12:59:31;36.30;53.50
41481;DHT22;27217;51.220;5.308;2022-07-29T13:01:57;35.80;53.40
41481;DHT22;27217;51.220;5.308;2022-07-29T13:04:32;35.80;55.00
41481;DHT22;27217;51.220;5.308;2022-07-29T13:07:05;36.50;53.50
41481;DHT22;27217;51.220;5.308;2022-07-29T13:09:43;36.20;53.50
41481;DHT22;27217;51.220;5.308;2022-07-29T13:12:11;37.10;52.50
41481;DHT22;27217;51.220;5.308;2022-07-29T13:14:46;37.10;52.70
41481;DHT22;27217;51.220;5.308;2022-07-29T13:19:42;38.20;51.40
41481;DHT22;27217;51.220;5.308;2022-07-29T13:22:14;38.40;51.90
41481;DHT22;27217;51.220;5.308;2022-07-29T13:24:47;39.20;49.60
41481;DHT22;27217;51.220;5.308;2022-07-29T13:27:14;40.50;48.20
41481;DHT22;27217;51.220;5.308;2022-07-29T13:29:41;40.20;47.70
41481;DHT22;27217;51.220;5.308;2022-07-29T13:32:07;40.50;48.10
41481;DHT22;27217;51.220;5.308;2022-07-29T13:34:33;40.50;46.90
41481;DHT22;27217;51.220;5.308;2022-07-29T13:36:58;39.30;47.40
41481;DHT22;27217;51.220;5.308;2022-07-29T13:39:24;37.30;49.50
41481;DHT22;27217;51.220;5.308;2022-07-29T13:41:51;35.70;51.30
41481;DHT22;27217;51.220;5.308;2022-07-29T13:44:17;34.10;53.30
41481;DHT22;27217;51.220;5.308;2022-07-29T13:46:43;32.10;56.50
41481;DHT22;27217;51.220;5.308;2022-07-29T13:49:10;32.20;56.70
41481;DHT22;27217;51.220;5.308;2022-07-29T13:51:37;34.00;53.90
41481;DHT22;27217;51.220;5.308;2022-07-29T13:54:03;35.70;52.40
41481;DHT22;27217;51.220;5.308;2022-07-29T13:56:29;36.50;51.60
41481;DHT22;27217;51.220;5.308;2022-07-29T13:58:56;36.60;51.30
41481;DHT22;27217;51.220;5.308;2022-07-29T14:01:22;35.60;51.80
41481;DHT22;27217;51.220;5.308;2022-07-29T14:03:48;33.20;54.50
41481;DHT22;27217;51.220;5.308;2022-07-29T14:06:14;32.00;56.20
41481;DHT22;27217;51.220;5.308;2022-07-29T14:08:40;30.90;58.40
41481;DHT22;27217;51.220;5.308;2022-07-29T14:11:06;32.70;55.90
41481;DHT22;27217;51.220;5.308;2022-07-29T14:13:32;34.70;54.00
41481;DHT22;27217;51.220;5.308;2022-07-29T14:15:58;35.10;52.30
41481;DHT22;27217;51.220;5.308;2022-07-29T14:18:24;34.90;53.10
41481;DHT22;27217;51.220;5.308;2022-07-29T14:20:50;34.60;53.60
41481;DHT22;27217;51.220;5.308;2022-07-29T14:23:16;35.60;52.70
41481;DHT22;27217;51.220;5.308;2022-07-29T14:25:42;36.10;51.80
41481;DHT22;27217;51.220;5.308;2022-07-29T14:28:08;37.30;50.80
41481;DHT22;27217;51.220;5.308;2022-07-29T14:30:34;36.60;50.80
41481;DHT22;27217;51.220;5.308;2022-07-29T14:33:00;37.40;49.90
41481;DHT22;27217;51.220;5.308;2022-07-29T14:35:26;37.90;49.30
41481;DHT22;27217;51.220;5.308;2022-07-29T14:37:51;38.40;48.80
41481;DHT22;27217;51.220;5.308;2022-07-29T14:40:18;36.30;50.20
41481;DHT22;27217;51.220;5.308;2022-07-29T14:42:44;35.70;51.80
41481;DHT22;27217;51.220;5.308;2022-07-29T14:45:10;36.00;51.10
41481;DHT22;27217;51.220;5.308;2022-07-29T14:47:37;35.30;51.90
41481;DHT22;27217;51.220;5.308;2022-07-29T14:50:04;35.70;50.90
41481;DHT22;27217;51.220;5.308;2022-07-29T14:52:30;36.30;50.50
41481;DHT22;27217;51.220;5.308;2022-07-29T14:54:56;37.60;49.00
41481;DHT22;27217;51.220;5.308;2022-07-29T14:57:22;38.40;48.70
41481;DHT22;27217;51.220;5.308;2022-07-29T14:59:48;38.70;48.40
41481;DHT22;27217;51.220;5.308;2022-07-29T15:02:14;38.50;48.40
41481;DHT22;27217;51.220;5.308;2022-07-29T15:04:40;39.00;47.80
41481;DHT22;27217;51.220;5.308;2022-07-29T15:07:06;38.30;47.80
41481;DHT22;27217;51.220;5.308;2022-07-29T15:09:32;38.90;47.50
41481;DHT22;27217;51.220;5.308;2022-07-29T15:11:58;38.80;47.10
41481;DHT22;27217;51.220;5.308;2022-07-29T15:14:24;38.90;46.50
41481;DHT22;27217;51.220;5.308;2022-07-29T15:16:50;39.00;46.90
41481;DHT22;27217;51.220;5.308;2022-07-29T15:19:16;39.30;46.90
41481;DHT22;27217;51.220;5.308;2022-07-29T15:21:42;39.40;46.30
41481;DHT22;27217;51.220;5.308;2022-07-29T15:24:08;38.90;46.50
41481;DHT22;27217;51.220;5.308;2022-07-29T15:26:33;38.60;46.50
41481;DHT22;27217;51.220;5.308;2022-07-29T15:28:59;38.00;47.30
41481;DHT22;27217;51.220;5.308;2022-07-29T15:31:25;37.60;47.20
41481;DHT22;27217;51.220;5.308;2022-07-29T15:33:51;36.40;48.90
41481;DHT22;27217;51.220;5.308;2022-07-29T15:36:17;36.20;49.70
41481;DHT22;27217;51.220;5.308;2022-07-29T15:38:43;36.90;49.10
41481;DHT22;27217;51.220;5.308;2022-07-29T15:41:13;37.00;48.40
41481;DHT22;27217;51.220;5.308;2022-07-29T15:43:43;37.40;47.90
41481;DHT22;27217;51.220;5.308;2022-07-29T15:46:13;36.80;48.00
41481;DHT22;27217;51.220;5.308;2022-07-29T15:48:57;36.90;48.30
41481;DHT22;27217;51.220;5.308;2022-07-29T15:51:24;37.90;47.20
41481;DHT22;27217;51.220;5.308;2022-07-29T15:53:50;37.80;47.50
41481;DHT22;27217;51.220;5.308;2022-07-29T15:56:15;37.90;46.70
41481;DHT22;27217;51.220;5.308;2022-07-29T15:58:42;37.00;47.80
41481;DHT22;27217;51.220;5.308;2022-07-29T16:01:08;36.70;48.40
41481;DHT22;27217;51.220;5.308;2022-07-29T16:03:34;36.90;48.10